Pomona, New York
Current Conditions -  °F | °C
As of 4:56 PM on Sunday 23 Nov 2014 (Local Time) from KHPN Reporting Station
Clear Clear  
Wind Chill: 40°   Ceiling: Unl
Heat Index: 43°   Visibility: 10mi
Dew Point: 27°   Wind: 5mph
Humidity: 53%   Direction: 170°S
Pressure: 30.13"   Gusts: NA
Location:  41.17°N, 74.04°W
Report Text: KHPN 232156Z 17004KT 10SM CLR 06/M03 A3013 RMK AO2 SLP206 T00611028
Loading
Personal Weather Stations






























Interactive Weather Map New forecast layout! Learn more

10-Day Weather Forecast

Advertisements
Track Severe Weather on mobile